sensor_id;sensor_type;location;lat;lon;timestamp;pressure;altitude;pressure_sealevel;temperature;humidity
71043;BME280;58696;52.134;5.500;2023-03-14T00:00:26;99004.91;;;10.29;84.27
71043;BME280;58696;52.134;5.500;2023-03-14T00:02:53;99003.53;;;10.38;83.74
71043;BME280;58696;52.134;5.500;2023-03-14T00:05:22;99005.66;;;10.41;83.29
71043;BME280;58696;52.134;5.500;2023-03-14T00:07:54;98995.94;;;10.43;82.90
71043;BME280;58696;52.134;5.500;2023-03-14T00:10:24;98999.63;;;10.47;82.34
71043;BME280;58696;52.134;5.500;2023-03-14T00:12:51;99002.09;;;10.42;82.38
71043;BME280;58696;52.134;5.500;2023-03-14T00:15:21;99000.41;;;10.48;81.89
71043;BME280;58696;52.134;5.500;2023-03-14T00:17:47;99003.66;;;10.55;81.17
71043;BME280;58696;52.134;5.500;2023-03-14T00:20:19;98997.25;;;10.58;80.72
71043;BME280;58696;52.134;5.500;2023-03-14T00:22:45;98996.81;;;10.61;80.34
71043;BME280;58696;52.134;5.500;2023-03-14T00:25:12;98992.66;;;10.60;80.14
71043;BME280;58696;52.134;5.500;2023-03-14T00:27:41;98988.88;;;10.62;79.54
71043;BME280;58696;52.134;5.500;2023-03-14T00:30:10;98992.31;;;10.68;78.92
71043;BME280;58696;52.134;5.500;2023-03-14T00:32:37;98999.25;;;10.67;78.65
71043;BME280;58696;52.134;5.500;2023-03-14T00:35:08;99006.50;;;10.70;78.60
71043;BME280;58696;52.134;5.500;2023-03-14T00:37:38;99004.94;;;10.69;78.32
71043;BME280;58696;52.134;5.500;2023-03-14T00:40:05;99020.91;;;10.71;77.82
71043;BME280;58696;52.134;5.500;2023-03-14T00:42:36;99012.88;;;10.68;77.70
71043;BME280;58696;52.134;5.500;2023-03-14T00:45:07;99002.25;;;10.64;77.66
71043;BME280;58696;52.134;5.500;2023-03-14T00:47:37;99002.72;;;10.61;77.67
71043;BME280;58696;52.134;5.500;2023-03-14T00:50:03;99005.75;;;10.58;77.92
71043;BME280;58696;52.134;5.500;2023-03-14T00:52:32;98999.50;;;10.54;77.82
71043;BME280;58696;52.134;5.500;2023-03-14T00:54:59;98998.94;;;10.52;77.79
71043;BME280;58696;52.134;5.500;2023-03-14T00:57:25;98994.59;;;10.52;77.77
71043;BME280;58696;52.134;5.500;2023-03-14T00:59:52;99010.47;;;10.49;78.15
71043;BME280;58696;52.134;5.500;2023-03-14T01:02:21;99007.00;;;10.44;78.37
71043;BME280;58696;52.134;5.500;2023-03-14T01:04:50;99010.38;;;10.44;78.12
71043;BME280;58696;52.134;5.500;2023-03-14T01:07:17;99010.13;;;10.46;78.15
71043;BME280;58696;52.134;5.500;2023-03-14T01:09:45;99025.53;;;10.46;77.82
71043;BME280;58696;52.134;5.500;2023-03-14T01:12:12;99026.75;;;10.43;78.35
71043;BME280;58696;52.134;5.500;2023-03-14T01:14:39;99030.34;;;10.31;79.01
71043;BME280;58696;52.134;5.500;2023-03-14T01:17:05;99027.53;;;10.20;79.90
71043;BME280;58696;52.134;5.500;2023-03-14T01:19:35;99034.00;;;10.11;80.43
71043;BME280;58696;52.134;5.500;2023-03-14T01:22:03;99036.34;;;10.01;81.52
71043;BME280;58696;52.134;5.500;2023-03-14T01:24:31;99029.41;;;9.90;82.05
71043;BME280;58696;52.134;5.500;2023-03-14T01:26:59;99033.31;;;9.81;82.74
71043;BME280;58696;52.134;5.500;2023-03-14T01:29:28;99043.44;;;9.75;83.23
71043;BME280;58696;52.134;5.500;2023-03-14T01:32:00;99045.75;;;9.65;84.56
71043;BME280;58696;52.134;5.500;2023-03-14T01:34:31;99041.81;;;9.51;85.62
71043;BME280;58696;52.134;5.500;2023-03-14T01:36:57;99041.00;;;9.39;86.24
71043;BME280;58696;52.134;5.500;2023-03-14T01:39:29;99037.19;;;9.30;86.71
71043;BME280;58696;52.134;5.500;2023-03-14T01:41:56;99035.16;;;9.20;88.00
71043;BME280;58696;52.134;5.500;2023-03-14T01:44:26;99031.88;;;9.13;87.33
71043;BME280;58696;52.134;5.500;2023-03-14T01:46:52;99031.31;;;9.11;88.26
71043;BME280;58696;52.134;5.500;2023-03-14T01:49:32;99017.34;;;9.07;88.77
71043;BME280;58696;52.134;5.500;2023-03-14T01:54:40;99014.47;;;9.03;89.22
71043;BME280;58696;52.134;5.500;2023-03-14T01:59:43;98998.38;;;8.96;89.34
71043;BME280;58696;52.134;5.500;2023-03-14T02:02:13;98999.38;;;8.95;89.62
71043;BME280;58696;52.134;5.500;2023-03-14T02:04:44;99003.50;;;8.96;89.68
71043;BME280;58696;52.134;5.500;2023-03-14T02:10:23;99003.72;;;8.94;89.70
71043;BME280;58696;52.134;5.500;2023-03-14T02:12:52;98997.41;;;8.97;89.68
71043;BME280;58696;52.134;5.500;2023-03-14T02:15:22;98999.97;;;8.97;89.57
71043;BME280;58696;52.134;5.500;2023-03-14T02:17:54;99000.28;;;9.01;89.51
71043;BME280;58696;52.134;5.500;2023-03-14T02:23:00;99000.28;;;9.01;89.22
71043;BME280;58696;52.134;5.500;2023-03-14T02:25:51;98998.31;;;9.03;89.32
71043;BME280;58696;52.134;5.500;2023-03-14T02:28:24;98991.03;;;9.00;89.49
71043;BME280;58696;52.134;5.500;2023-03-14T02:30:53;98987.94;;;8.98;89.48
71043;BME280;58696;52.134;5.500;2023-03-14T02:33:21;98979.47;;;8.97;89.64
71043;BME280;58696;52.134;5.500;2023-03-14T02:35:59;98987.94;;;8.98;89.64
71043;BME280;58696;52.134;5.500;2023-03-14T02:38:31;98991.28;;;8.98;89.35
71043;BME280;58696;52.134;5.500;2023-03-14T02:41:03;98996.41;;;8.98;89.39
71043;BME280;58696;52.134;5.500;2023-03-14T02:43:32;98980.25;;;8.98;89.36
71043;BME280;58696;52.134;5.500;2023-03-14T02:46:00;98973.75;;;8.95;89.77
71043;BME280;58696;52.134;5.500;2023-03-14T02:48:33;98973.22;;;8.93;89.80
71043;BME280;58696;52.134;5.500;2023-03-14T02:51:07;98974.22;;;8.92;89.72
71043;BME280;58696;52.134;5.500;2023-03-14T02:53:38;98975.19;;;8.91;89.97
71043;BME280;58696;52.134;5.500;2023-03-14T02:56:09;98958.72;;;8.87;90.04
71043;BME280;58696;52.134;5.500;2023-03-14T02:58:35;98971.50;;;8.87;89.87
71043;BME280;58696;52.134;5.500;2023-03-14T03:01:06;98974.84;;;8.87;89.82
71043;BME280;58696;52.134;5.500;2023-03-14T03:03:34;98963.16;;;8.91;89.59
71043;BME280;58696;52.134;5.500;2023-03-14T03:06:05;98966.72;;;8.90;89.94
71043;BME280;58696;52.134;5.500;2023-03-14T03:08:35;98956.47;;;8.90;90.08
71043;BME280;58696;52.134;5.500;2023-03-14T03:11:06;98955.69;;;8.90;90.11
71043;BME280;58696;52.134;5.500;2023-03-14T03:13:34;98949.38;;;8.92;89.99
71043;BME280;58696;52.134;5.500;2023-03-14T03:16:01;98953.91;;;8.90;90.08
71043;BME280;58696;52.134;5.500;2023-03-14T03:18:28;98941.09;;;8.90;89.93
71043;BME280;58696;52.134;5.500;2023-03-14T03:20:55;98958.25;;;8.90;89.73
71043;BME280;58696;52.134;5.500;2023-03-14T03:23:24;98957.47;;;8.89;89.95
71043;BME280;58696;52.134;5.500;2023-03-14T03:25:51;98956.28;;;8.92;89.82
71043;BME280;58696;52.134;5.500;2023-03-14T03:28:19;98958.84;;;8.92;89.84
71043;BME280;58696;52.134;5.500;2023-03-14T03:30:46;98945.81;;;8.93;89.83
71043;BME280;58696;52.134;5.500;2023-03-14T03:33:16;98938.66;;;8.95;89.99
71043;BME280;58696;52.134;5.500;2023-03-14T03:35:48;98944.16;;;8.99;89.69
71043;BME280;58696;52.134;5.500;2023-03-14T03:38:17;98944.50;;;9.03;89.18
71043;BME280;58696;52.134;5.500;2023-03-14T03:40:46;98946.25;;;9.02;88.92
71043;BME280;58696;52.134;5.500;2023-03-14T03:43:12;98943.28;;;9.05;88.97
71043;BME280;58696;52.134;5.500;2023-03-14T03:45:39;98937.94;;;9.07;88.78
71043;BME280;58696;52.134;5.500;2023-03-14T03:48:07;98923.34;;;9.07;88.88
71043;BME280;58696;52.134;5.500;2023-03-14T03:50:36;98924.56;;;9.05;88.99
71043;BME280;58696;52.134;5.500;2023-03-14T03:53:05;98922.44;;;9.02;89.03
71043;BME280;58696;52.134;5.500;2023-03-14T03:55:36;98912.63;;;8.99;89.07
71043;BME280;58696;52.134;5.500;2023-03-14T03:58:08;98923.66;;;8.99;89.18
71043;BME280;58696;52.134;5.500;2023-03-14T04:00:35;98933.81;;;9.06;88.90
71043;BME280;58696;52.134;5.500;2023-03-14T04:03:02;98921.53;;;9.08;88.72
71043;BME280;58696;52.134;5.500;2023-03-14T04:05:29;98922.56;;;9.07;88.58
71043;BME280;58696;52.134;5.500;2023-03-14T04:08:01;98931.00;;;9.07;88.46
71043;BME280;58696;52.134;5.500;2023-03-14T04:10:29;98929.34;;;9.13;88.22
71043;BME280;58696;52.134;5.500;2023-03-14T04:12:58;98934.84;;;9.16;88.08
71043;BME280;58696;52.134;5.500;2023-03-14T04:15:24;98927.69;;;9.18;87.80
71043;BME280;58696;52.134;5.500;2023-03-14T04:17:57;98936.19;;;9.19;87.69
71043;BME280;58696;52.134;5.500;2023-03-14T04:20:26;98936.75;;;9.21;87.63
71043;BME280;58696;52.134;5.500;2023-03-14T04:22:55;98932.41;;;9.21;87.65
71043;BME280;58696;52.134;5.500;2023-03-14T04:25:21;98942.66;;;9.21;87.57
71043;BME280;58696;52.134;5.500;2023-03-14T04:27:48;98943.44;;;9.22;87.71
71043;BME280;58696;52.134;5.500;2023-03-14T04:30:18;98943.00;;;9.25;87.76
71043;BME280;58696;52.134;5.500;2023-03-14T04:32:45;98942.56;;;9.28;87.12
71043;BME280;58696;52.134;5.500;2023-03-14T04:35:12;98933.06;;;9.29;87.20
71043;BME280;58696;52.134;5.500;2023-03-14T04:37:41;98934.44;;;9.31;86.94
71043;BME280;58696;52.134;5.500;2023-03-14T04:40:09;98930.88;;;9.32;86.79
71043;BME280;58696;52.134;5.500;2023-03-14T04:42:40;98932.66;;;9.32;86.48
71043;BME280;58696;52.134;5.500;2023-03-14T04:45:07;98919.06;;;9.31;86.87
71043;BME280;58696;52.134;5.500;2023-03-14T04:47:34;98913.28;;;9.36;86.71
71043;BME280;58696;52.134;5.500;2023-03-14T04:50:01;98922.53;;;9.37;86.47
71043;BME280;58696;52.134;5.500;2023-03-14T04:52:28;98918.16;;;9.37;86.46
71043;BME280;58696;52.134;5.500;2023-03-14T04:54:54;98926.41;;;9.39;86.66
71043;BME280;58696;52.134;5.500;2023-03-14T04:57:21;98917.72;;;9.40;86.29
71043;BME280;58696;52.134;5.500;2023-03-14T04:59:52;98904.13;;;9.40;86.65
71043;BME280;58696;52.134;5.500;2023-03-14T05:02:21;98911.25;;;9.38;86.57
71043;BME280;58696;52.134;5.500;2023-03-14T05:04:53;98908.47;;;9.39;86.57
71043;BME280;58696;52.134;5.500;2023-03-14T05:07:22;98907.25;;;9.42;86.52
71043;BME280;58696;52.134;5.500;2023-03-14T05:09:52;98910.25;;;9.39;86.59
71043;BME280;58696;52.134;5.500;2023-03-14T05:12:22;98907.13;;;9.37;86.98
71043;BME280;58696;52.134;5.500;2023-03-14T05:14:51;98900.34;;;9.31;87.46
71043;BME280;58696;52.134;5.500;2023-03-14T05:17:18;98911.91;;;9.21;88.39
71043;BME280;58696;52.134;5.500;2023-03-14T05:19:47;98915.22;;;9.10;88.82
71043;BME280;58696;52.134;5.500;2023-03-14T05:22:13;98912.94;;;9.02;89.41
71043;BME280;58696;52.134;5.500;2023-03-14T05:24:43;98911.28;;;8.96;90.08
71043;BME280;58696;52.134;5.500;2023-03-14T05:27:13;98908.56;;;8.91;90.27
71043;BME280;58696;52.134;5.500;2023-03-14T05:29:42;98902.91;;;8.89;90.79
71043;BME280;58696;52.134;5.500;2023-03-14T05:32:08;98901.00;;;8.84;90.82
71043;BME280;58696;52.134;5.500;2023-03-14T05:34:39;98896.50;;;8.80;91.24
71043;BME280;58696;52.134;5.500;2023-03-14T05:37:06;98905.44;;;8.77;91.44
71043;BME280;58696;52.134;5.500;2023-03-14T05:39:35;98899.72;;;8.75;91.85
71043;BME280;58696;52.134;5.500;2023-03-14T05:42:04;98904.28;;;8.73;92.08
71043;BME280;58696;52.134;5.500;2023-03-14T05:44:34;98903.50;;;8.73;92.21
71043;BME280;58696;52.134;5.500;2023-03-14T05:47:02;98898.41;;;8.73;92.42
71043;BME280;58696;52.134;5.500;2023-03-14T05:49:29;98901.97;;;8.72;92.65
71043;BME280;58696;52.134;5.500;2023-03-14T05:51:55;98904.94;;;8.68;92.64
71043;BME280;58696;52.134;5.500;2023-03-14T05:54:24;98905.38;;;8.65;92.87
71043;BME280;58696;52.134;5.500;2023-03-14T05:56:51;98906.38;;;8.64;93.29
71043;BME280;58696;52.134;5.500;2023-03-14T05:59:20;98896.56;;;8.61;93.50
71043;BME280;58696;52.134;5.500;2023-03-14T06:01:46;98895.00;;;8.60;94.05
71043;BME280;58696;52.134;5.500;2023-03-14T06:04:15;98897.56;;;8.60;93.57
71043;BME280;58696;52.134;5.500;2023-03-14T06:06:47;98896.56;;;8.61;93.75
71043;BME280;58696;52.134;5.500;2023-03-14T06:09:16;98895.78;;;8.61;93.59
71043;BME280;58696;52.134;5.500;2023-03-14T06:11:44;98893.44;;;8.59;93.87
71043;BME280;58696;52.134;5.500;2023-03-14T06:14:10;98888.09;;;8.61;93.92
71043;BME280;58696;52.134;5.500;2023-03-14T06:16:37;98894.00;;;8.61;94.11
71043;BME280;58696;52.134;5.500;2023-03-14T06:19:06;98890.22;;;8.64;94.11
71043;BME280;58696;52.134;5.500;2023-03-14T06:21:33;98905.16;;;8.67;94.21
71043;BME280;58696;52.134;5.500;2023-03-14T06:24:00;98900.81;;;8.67;94.18
71043;BME280;58696;52.134;5.500;2023-03-14T06:26:29;98891.34;;;8.68;94.57
71043;BME280;58696;52.134;5.500;2023-03-14T06:29:00;98896.25;;;8.69;94.63
71043;BME280;58696;52.134;5.500;2023-03-14T06:31:30;98901.19;;;8.71;94.83
71043;BME280;58696;52.134;5.500;2023-03-14T06:33:57;98904.53;;;8.72;94.84
71043;BME280;58696;52.134;5.500;2023-03-14T06:36:23;98914.75;;;8.72;94.68
71043;BME280;58696;52.134;5.500;2023-03-14T06:38:50;98892.72;;;8.71;94.64
71043;BME280;58696;52.134;5.500;2023-03-14T06:41:17;98915.00;;;8.70;94.71
71043;BME280;58696;52.134;5.500;2023-03-14T06:43:44;98916.53;;;8.71;95.08
71043;BME280;58696;52.134;5.500;2023-03-14T06:46:15;98958.72;;;8.68;95.64
71043;BME280;58696;52.134;5.500;2023-03-14T06:48:41;98966.84;;;8.65;95.98
71043;BME280;58696;52.134;5.500;2023-03-14T06:51:08;98977.28;;;8.64;96.23
71043;BME280;58696;52.134;5.500;2023-03-14T06:53:35;98977.94;;;8.59;96.27
71043;BME280;58696;52.134;5.500;2023-03-14T06:56:01;99000.13;;;8.47;95.06
71043;BME280;58696;52.134;5.500;2023-03-14T06:58:31;99010.31;;;8.29;94.72
71043;BME280;58696;52.134;5.500;2023-03-14T07:00:58;99020.94;;;8.07;93.98
71043;BME280;58696;52.134;5.500;2023-03-14T07:03:26;99028.75;;;7.94;93.65
71043;BME280;58696;52.134;5.500;2023-03-14T07:05:55;99039.66;;;7.83;93.52
71043;BME280;58696;52.134;5.500;2023-03-14T07:08:22;99049.13;;;7.76;93.41
71043;BME280;58696;52.134;5.500;2023-03-14T07:10:50;99055.28;;;7.68;93.78
71043;BME280;58696;52.134;5.500;2023-03-14T07:13:17;99051.00;;;7.62;93.65
71043;BME280;58696;52.134;5.500;2023-03-14T07:15:44;99063.59;;;7.57;94.18
71043;BME280;58696;52.134;5.500;2023-03-14T07:18:13;99064.25;;;7.46;94.50
71043;BME280;58696;52.134;5.500;2023-03-14T07:20:42;99074.31;;;7.41;94.26
71043;BME280;58696;52.134;5.500;2023-03-14T07:23:10;99079.81;;;7.37;94.65
71043;BME280;58696;52.134;5.500;2023-03-14T07:25:37;99092.25;;;7.34;94.56
71043;BME280;58696;52.134;5.500;2023-03-14T07:28:03;99105.00;;;7.34;94.71
71043;BME280;58696;52.134;5.500;2023-03-14T07:30:32;99115.81;;;7.36;95.10
71043;BME280;58696;52.134;5.500;2023-03-14T07:33:04;99129.41;;;7.30;95.23
71043;BME280;58696;52.134;5.500;2023-03-14T07:35:30;99136.09;;;7.24;94.74
71043;BME280;58696;52.134;5.500;2023-03-14T07:38:00;99141.22;;;7.24;94.83
71043;BME280;58696;52.134;5.500;2023-03-14T07:40:26;99148.47;;;7.21;95.42
71043;BME280;58696;52.134;5.500;2023-03-14T07:42:53;99161.84;;;7.16;94.96
71043;BME280;58696;52.134;5.500;2023-03-14T07:45:24;99179.38;;;7.13;94.60
71043;BME280;58696;52.134;5.500;2023-03-14T07:47:50;99189.59;;;7.13;94.70
71043;BME280;58696;52.134;5.500;2023-03-14T07:50:21;99192.13;;;7.06;94.64
71043;BME280;58696;52.134;5.500;2023-03-14T07:52:50;99208.66;;;7.03;94.34
71043;BME280;58696;52.134;5.500;2023-03-14T07:55:17;99222.00;;;6.99;94.33
71043;BME280;58696;52.134;5.500;2023-03-14T07:57:45;99230.88;;;6.96;93.92
71043;BME280;58696;52.134;5.500;2023-03-14T08:00:12;99239.50;;;6.95;94.19
71043;BME280;58696;52.134;5.500;2023-03-14T08:02:41;99246.97;;;6.90;94.00
71043;BME280;58696;52.134;5.500;2023-03-14T08:05:13;99267.78;;;6.67;92.90
71043;BME280;58696;52.134;5.500;2023-03-14T08:07:42;99279.31;;;6.37;92.16
71043;BME280;58696;52.134;5.500;2023-03-14T08:10:10;99297.69;;;6.19;92.49
71043;BME280;58696;52.134;5.500;2023-03-14T08:12:41;99317.03;;;6.00;92.71
71043;BME280;58696;52.134;5.500;2023-03-14T08:15:13;99318.69;;;5.86;92.57
71043;BME280;58696;52.134;5.500;2023-03-14T08:17:42;99339.66;;;5.81;92.27
71043;BME280;58696;52.134;5.500;2023-03-14T08:20:13;99346.69;;;5.73;91.70
71043;BME280;58696;52.134;5.500;2023-03-14T08:22:43;99360.34;;;5.65;91.72
71043;BME280;58696;52.134;5.500;2023-03-14T08:25:13;99372.69;;;5.62;92.00
71043;BME280;58696;52.134;5.500;2023-03-14T08:27:40;99384.81;;;5.60;91.63
71043;BME280;58696;52.134;5.500;2023-03-14T08:30:10;99389.53;;;5.63;92.04
71043;BME280;58696;52.134;5.500;2023-03-14T08:32:38;99407.38;;;5.63;91.63
71043;BME280;58696;52.134;5.500;2023-03-14T08:35:05;99407.53;;;5.54;90.36
71043;BME280;58696;52.134;5.500;2023-03-14T08:37:33;99422.72;;;5.69;91.37
71043;BME280;58696;52.134;5.500;2023-03-14T08:40:02;99426.00;;;5.63;90.15
71043;BME280;58696;52.134;5.500;2023-03-14T08:42:38;99434.09;;;5.67;90.26
71043;BME280;58696;52.134;5.500;2023-03-14T08:45:07;99450.25;;;5.80;88.89
71043;BME280;58696;52.134;5.500;2023-03-14T08:47:40;99460.13;;;5.90;89.15
71043;BME280;58696;52.134;5.500;2023-03-14T08:50:08;99484.53;;;5.93;88.55
71043;BME280;58696;52.134;5.500;2023-03-14T08:52:44;99492.44;;;6.04;88.52
71043;BME280;58696;52.134;5.500;2023-03-14T08:55:11;99502.25;;;6.07;87.66
71043;BME280;58696;52.134;5.500;2023-03-14T08:57:40;99512.09;;;6.11;87.56
71043;BME280;58696;52.134;5.500;2023-03-14T09:00:10;99528.78;;;6.13;86.64
71043;BME280;58696;52.134;5.500;2023-03-14T09:02:41;99542.47;;;6.05;85.32
71043;BME280;58696;52.134;5.500;2023-03-14T09:05:09;99545.22;;;6.04;83.39
71043;BME280;58696;52.134;5.500;2023-03-14T09:07:41;99568.16;;;6.04;83.08
71043;BME280;58696;52.134;5.500;2023-03-14T09:10:08;99560.03;;;6.15;83.60
71043;BME280;58696;52.134;5.500;2023-03-14T09:12:36;99572.91;;;6.35;83.73
71043;BME280;58696;52.134;5.500;2023-03-14T09:15:06;99586.13;;;6.45;84.44
71043;BME280;58696;52.134;5.500;2023-03-14T09:17:37;99604.88;;;6.31;82.82
71043;BME280;58696;52.134;5.500;2023-03-14T09:20:07;99607.78;;;6.28;83.77
71043;BME280;58696;52.134;5.500;2023-03-14T09:22:35;99623.38;;;6.40;83.17
71043;BME280;58696;52.134;5.500;2023-03-14T09:25:03;99617.88;;;6.36;81.98
71043;BME280;58696;52.134;5.500;2023-03-14T09:27:30;99619.81;;;6.34;81.11
71043;BME280;58696;52.134;5.500;2023-03-14T09:29:56;99637.13;;;6.39;80.73
71043;BME280;58696;52.134;5.500;2023-03-14T09:32:23;99643.44;;;6.43;80.24
71043;BME280;58696;52.134;5.500;2023-03-14T09:34:49;99650.56;;;6.47;81.71
71043;BME280;58696;52.134;5.500;2023-03-14T09:37:18;99655.81;;;6.46;79.70
71043;BME280;58696;52.134;5.500;2023-03-14T09:39:48;99670.00;;;6.48;79.45
71043;BME280;58696;52.134;5.500;2023-03-14T09:42:18;99678.50;;;6.55;80.59
71043;BME280;58696;52.134;5.500;2023-03-14T09:44:59;99700.44;;;6.50;78.55
71043;BME280;58696;52.134;5.500;2023-03-14T09:47:27;99709.19;;;6.41;79.47
71043;BME280;58696;52.134;5.500;2023-03-14T09:49:56;99721.94;;;6.41;77.03
71043;BME280;58696;52.134;5.500;2023-03-14T09:52:38;99728.19;;;6.38;78.03
71043;BME280;58696;52.134;5.500;2023-03-14T09:55:16;99742.09;;;6.36;77.52
71043;BME280;58696;52.134;5.500;2023-03-14T09:57:45;99747.03;;;6.37;78.23
71043;BME280;58696;52.134;5.500;2023-03-14T10:00:24;99755.53;;;6.44;78.87
71043;BME280;58696;52.134;5.500;2023-03-14T10:05:33;99774.78;;;6.47;78.94
71043;BME280;58696;52.134;5.500;2023-03-14T10:08:00;99769.00;;;6.53;78.30
71043;BME280;58696;52.134;5.500;2023-03-14T10:10:26;99784.91;;;6.55;76.88
71043;BME280;58696;52.134;5.500;2023-03-14T10:15:52;99805.88;;;6.72;76.88
71043;BME280;58696;52.134;5.500;2023-03-14T10:18:22;99819.69;;;6.77;77.01
71043;BME280;58696;52.134;5.500;2023-03-14T10:23:43;99839.19;;;6.64;78.96
71043;BME280;58696;52.134;5.500;2023-03-14T10:26:15;99867.00;;;6.22;79.13
71043;BME280;58696;52.134;5.500;2023-03-14T10:29:04;99888.94;;;5.79;81.82
71043;BME280;58696;52.134;5.500;2023-03-14T10:31:57;99884.16;;;5.76;83.05
71043;BME280;58696;52.134;5.500;2023-03-14T10:34:31;99880.94;;;5.82;79.54
71043;BME280;58696;52.134;5.500;2023-03-14T10:37:07;99892.59;;;5.99;79.22
71043;BME280;58696;52.134;5.500;2023-03-14T10:39:51;99909.56;;;6.22;77.26
71043;BME280;58696;52.134;5.500;2023-03-14T10:42:25;99921.63;;;6.43;77.79
71043;BME280;58696;52.134;5.500;2023-03-14T10:44:59;99938.84;;;6.55;76.49
71043;BME280;58696;52.134;5.500;2023-03-14T10:47:27;99938.78;;;6.64;76.57
71043;BME280;58696;52.134;5.500;2023-03-14T10:49:56;99949.31;;;6.75;77.27
71043;BME280;58696;52.134;5.500;2023-03-14T10:55:15;99971.41;;;6.68;76.22
71043;BME280;58696;52.134;5.500;2023-03-14T10:57:47;99972.47;;;6.59;76.33
71043;BME280;58696;52.134;5.500;2023-03-14T11:00:19;99991.56;;;6.33;75.02
71043;BME280;58696;52.134;5.500;2023-03-14T11:03:17;100011.06;;;6.12;75.53
71043;BME280;58696;52.134;5.500;2023-03-14T11:05:53;100018.72;;;6.12;73.97
71043;BME280;58696;52.134;5.500;2023-03-14T11:08:45;100040.00;;;6.19;73.42
71043;BME280;58696;52.134;5.500;2023-03-14T11:11:27;100035.81;;;6.26;72.46
71043;BME280;58696;52.134;5.500;2023-03-14T11:14:17;100049.19;;;6.28;71.29
71043;BME280;58696;52.134;5.500;2023-03-14T11:17:09;100055.53;;;6.32;71.17
71043;BME280;58696;52.134;5.500;2023-03-14T11:19:57;100063.63;;;6.36;69.67
71043;BME280;58696;52.134;5.500;2023-03-14T11:31:00;100104.59;;;7.46;63.41
71043;BME280;58696;52.134;5.500;2023-03-14T11:36:15;100131.56;;;7.33;63.30
71043;BME280;58696;52.134;5.500;2023-03-14T11:38:52;100122.88;;;7.13;62.30
71043;BME280;58696;52.134;5.500;2023-03-14T11:41:23;100135.91;;;7.03;61.80
71043;BME280;58696;52.134;5.500;2023-03-14T11:43:55;100154.94;;;7.01;61.21
71043;BME280;58696;52.134;5.500;2023-03-14T11:46:32;100155.28;;;6.98;60.32
71043;BME280;58696;52.134;5.500;2023-03-14T11:49:16;100162.44;;;7.02;59.55
71043;BME280;58696;52.134;5.500;2023-03-14T11:51:52;100164.56;;;7.14;61.20
71043;BME280;58696;52.134;5.500;2023-03-14T11:57:03;100170.63;;;7.42;59.26
71043;BME280;58696;52.134;5.500;2023-03-14T12:08:32;100194.75;;;7.84;54.37
71043;BME280;58696;52.134;5.500;2023-03-14T12:11:35;100209.31;;;7.83;53.79
71043;BME280;58696;52.134;5.500;2023-03-14T12:14:02;100213.22;;;8.01;52.81
71043;BME280;58696;52.134;5.500;2023-03-14T12:16:34;100217.66;;;8.28;53.50
71043;BME280;58696;52.134;5.500;2023-03-14T12:19:36;100227.25;;;8.26;52.06
71043;BME280;58696;52.134;5.500;2023-03-14T12:22:24;100236.59;;;8.34;48.83
71043;BME280;58696;52.134;5.500;2023-03-14T12:24:56;100244.75;;;8.37;50.23
71043;BME280;58696;52.134;5.500;2023-03-14T12:27:41;100239.50;;;8.09;49.32
71043;BME280;58696;52.134;5.500;2023-03-14T12:30:34;100248.16;;;8.08;50.72
71043;BME280;58696;52.134;5.500;2023-03-14T12:35:50;100260.72;;;8.39;55.99
71043;BME280;58696;52.134;5.500;2023-03-14T12:43:35;100262.25;;;8.04;52.25
71043;BME280;58696;52.134;5.500;2023-03-14T12:46:26;100278.63;;;7.88;52.75
71043;BME280;58696;52.134;5.500;2023-03-14T12:49:08;100278.44;;;8.05;52.05
71043;BME280;58696;52.134;5.500;2023-03-14T12:51:41;100287.50;;;8.07;50.47
71043;BME280;58696;52.134;5.500;2023-03-14T12:54:57;100290.91;;;8.29;50.09
71043;BME280;58696;52.134;5.500;2023-03-14T12:59:45;100302.19;;;8.35;51.91
71043;BME280;58696;52.134;5.500;2023-03-14T13:02:38;100313.03;;;8.01;49.32
71043;BME280;58696;52.134;5.500;2023-03-14T13:05:17;100323.19;;;7.94;48.72
71043;BME280;58696;52.134;5.500;2023-03-14T13:13:12;100354.19;;;7.47;51.30
71043;BME280;58696;52.134;5.500;2023-03-14T13:15:46;100352.19;;;8.01;52.34
71043;BME280;58696;52.134;5.500;2023-03-14T13:21:09;100358.34;;;8.51;50.49
71043;BME280;58696;52.134;5.500;2023-03-14T13:23:39;100366.56;;;8.47;50.97
71043;BME280;58696;52.134;5.500;2023-03-14T13:26:13;100372.31;;;8.19;50.49
71043;BME280;58696;52.134;5.500;2023-03-14T13:28:43;100382.69;;;7.88;48.86
71043;BME280;58696;52.134;5.500;2023-03-14T13:31:25;100383.75;;;7.94;47.34
71043;BME280;58696;52.134;5.500;2023-03-14T13:34:09;100398.59;;;7.98;48.60
71043;BME280;58696;52.134;5.500;2023-03-14T13:36:38;100396.66;;;8.15;48.59
71043;BME280;58696;52.134;5.500;2023-03-14T13:39:13;100406.13;;;8.44;47.78
71043;BME280;58696;52.134;5.500;2023-03-14T13:41:46;100404.97;;;8.32;47.96
71043;BME280;58696;52.134;5.500;2023-03-14T13:44:18;100425.81;;;7.99;49.89
71043;BME280;58696;52.134;5.500;2023-03-14T13:46:48;100425.13;;;7.68;48.89
71043;BME280;58696;52.134;5.500;2023-03-14T13:49:24;100443.47;;;7.48;49.53
71043;BME280;58696;52.134;5.500;2023-03-14T13:51:54;100443.00;;;7.45;47.92
71043;BME280;58696;52.134;5.500;2023-03-14T13:54:22;100447.88;;;7.40;48.79
71043;BME280;58696;52.134;5.500;2023-03-14T13:57:02;100458.50;;;7.51;50.27
71043;BME280;58696;52.134;5.500;2023-03-14T13:59:33;100454.34;;;7.50;49.99
71043;BME280;58696;52.134;5.500;2023-03-14T14:02:13;100467.00;;;7.67;50.39
71043;BME280;58696;52.134;5.500;2023-03-14T14:04:48;100476.59;;;7.64;48.80
71043;BME280;58696;52.134;5.500;2023-03-14T14:07:20;100472.28;;;7.65;47.69
71043;BME280;58696;52.134;5.500;2023-03-14T14:09:52;100482.63;;;7.72;48.16
71043;BME280;58696;52.134;5.500;2023-03-14T14:12:25;100488.94;;;7.61;49.83
71043;BME280;58696;52.134;5.500;2023-03-14T14:17:35;100503.22;;;7.93;49.07
71043;BME280;58696;52.134;5.500;2023-03-14T14:20:10;100518.75;;;7.91;48.42
71043;BME280;58696;52.134;5.500;2023-03-14T14:22:41;100528.53;;;8.11;49.70
71043;BME280;58696;52.134;5.500;2023-03-14T14:25:13;100526.88;;;8.18;47.96
71043;BME280;58696;52.134;5.500;2023-03-14T14:27:44;100539.59;;;7.88;50.50
71043;BME280;58696;52.134;5.500;2023-03-14T14:32:50;100558.53;;;7.48;48.00
71043;BME280;58696;52.134;5.500;2023-03-14T14:37:49;100570.19;;;7.51;51.18